sensor_id;sensor_type;location;lat;lon;timestamp;P1;durP1;ratioP1;P2;durP2;ratioP2
3217;SDS011;1621;49.702;8.618;2023-04-16T00:00:54;8.03;;;6.33;;
3217;SDS011;1621;49.702;8.618;2023-04-16T00:03:21;7.97;;;6.30;;
3217;SDS011;1621;49.702;8.618;2023-04-16T00:05:47;8.77;;;6.60;;
3217;SDS011;1621;49.702;8.618;2023-04-16T00:08:15;8.70;;;6.30;;
3217;SDS011;1621;49.702;8.618;2023-04-16T00:10:41;8.80;;;6.90;;
3217;SDS011;1621;49.702;8.618;2023-04-16T00:13:07;9.10;;;6.93;;
3217;SDS011;1621;49.702;8.618;2023-04-16T00:15:34;10.10;;;8.13;;
3217;SDS011;1621;49.702;8.618;2023-04-16T00:18:00;9.07;;;6.90;;
3217;SDS011;1621;49.702;8.618;2023-04-16T00:20:26;8.83;;;6.90;;
3217;SDS011;1621;49.702;8.618;2023-04-16T00:22:52;17.87;;;8.73;;
3217;SDS011;1621;49.702;8.618;2023-04-16T00:25:20;9.33;;;7.10;;
3217;SDS011;1621;49.702;8.618;2023-04-16T00:27:46;9.83;;;8.20;;
3217;SDS011;1621;49.702;8.618;2023-04-16T00:30:13;9.50;;;7.70;;
3217;SDS011;1621;49.702;8.618;2023-04-16T00:32:39;8.33;;;7.00;;
3217;SDS011;1621;49.702;8.618;2023-04-16T00:35:05;8.80;;;7.57;;
3217;SDS011;1621;49.702;8.618;2023-04-16T00:37:32;8.83;;;7.47;;
3217;SDS011;1621;49.702;8.618;2023-04-16T00:39:58;9.07;;;7.30;;
3217;SDS011;1621;49.702;8.618;2023-04-16T00:42:25;10.77;;;8.77;;
3217;SDS011;1621;49.702;8.618;2023-04-16T00:44:52;11.90;;;8.00;;
3217;SDS011;1621;49.702;8.618;2023-04-16T00:47:18;10.83;;;8.10;;
3217;SDS011;1621;49.702;8.618;2023-04-16T00:49:45;10.23;;;7.60;;
3217;SDS011;1621;49.702;8.618;2023-04-16T00:52:11;10.23;;;7.87;;
3217;SDS011;1621;49.702;8.618;2023-04-16T00:54:38;9.47;;;7.43;;
3217;SDS011;1621;49.702;8.618;2023-04-16T00:57:04;10.30;;;7.90;;
3217;SDS011;1621;49.702;8.618;2023-04-16T00:59:32;9.10;;;7.80;;
3217;SDS011;1621;49.702;8.618;2023-04-16T01:01:58;10.87;;;8.40;;
3217;SDS011;1621;49.702;8.618;2023-04-16T01:04:24;12.73;;;8.63;;
3217;SDS011;1621;49.702;8.618;2023-04-16T01:06:51;9.97;;;8.50;;
3217;SDS011;1621;49.702;8.618;2023-04-16T01:09:17;11.50;;;8.50;;
3217;SDS011;1621;49.702;8.618;2023-04-16T01:11:43;11.07;;;8.50;;
3217;SDS011;1621;49.702;8.618;2023-04-16T01:14:09;10.53;;;7.90;;
3217;SDS011;1621;49.702;8.618;2023-04-16T01:16:37;10.87;;;8.37;;
3217;SDS011;1621;49.702;8.618;2023-04-16T01:19:03;11.47;;;9.03;;
3217;SDS011;1621;49.702;8.618;2023-04-16T01:21:31;10.90;;;8.53;;
3217;SDS011;1621;49.702;8.618;2023-04-16T01:24:00;10.00;;;8.73;;
3217;SDS011;1621;49.702;8.618;2023-04-16T01:26:27;11.30;;;9.00;;
3217;SDS011;1621;49.702;8.618;2023-04-16T01:28:53;11.03;;;8.80;;
3217;SDS011;1621;49.702;8.618;2023-04-16T01:31:19;11.43;;;8.70;;
3217;SDS011;1621;49.702;8.618;2023-04-16T01:33:45;11.73;;;8.17;;
3217;SDS011;1621;49.702;8.618;2023-04-16T01:36:12;10.60;;;8.33;;
3217;SDS011;1621;49.702;8.618;2023-04-16T01:38:39;14.77;;;9.77;;
3217;SDS011;1621;49.702;8.618;2023-04-16T01:41:06;12.70;;;9.63;;
3217;SDS011;1621;49.702;8.618;2023-04-16T01:43:32;12.27;;;8.93;;
3217;SDS011;1621;49.702;8.618;2023-04-16T01:46:06;13.67;;;8.97;;
3217;SDS011;1621;49.702;8.618;2023-04-16T01:48:34;12.23;;;8.47;;
3217;SDS011;1621;49.702;8.618;2023-04-16T01:51:01;10.93;;;8.60;;
3217;SDS011;1621;49.702;8.618;2023-04-16T01:53:28;11.00;;;8.90;;
3217;SDS011;1621;49.702;8.618;2023-04-16T01:55:56;11.00;;;9.17;;
3217;SDS011;1621;49.702;8.618;2023-04-16T01:58:22;11.30;;;8.77;;
3217;SDS011;1621;49.702;8.618;2023-04-16T02:00:48;12.23;;;9.60;;
3217;SDS011;1621;49.702;8.618;2023-04-16T02:03:15;11.60;;;9.37;;
3217;SDS011;1621;49.702;8.618;2023-04-16T02:05:42;12.00;;;8.57;;
3217;SDS011;1621;49.702;8.618;2023-04-16T02:08:08;13.47;;;9.43;;
3217;SDS011;1621;49.702;8.618;2023-04-16T02:10:34;10.97;;;8.47;;
3217;SDS011;1621;49.702;8.618;2023-04-16T02:13:02;11.47;;;9.30;;
3217;SDS011;1621;49.702;8.618;2023-04-16T02:15:28;12.10;;;9.67;;
3217;SDS011;1621;49.702;8.618;2023-04-16T02:17:54;10.63;;;9.07;;
3217;SDS011;1621;49.702;8.618;2023-04-16T02:20:21;11.63;;;9.20;;
3217;SDS011;1621;49.702;8.618;2023-04-16T02:22:47;11.80;;;9.17;;
3217;SDS011;1621;49.702;8.618;2023-04-16T02:25:13;14.07;;;9.43;;
3217;SDS011;1621;49.702;8.618;2023-04-16T02:27:39;10.70;;;8.90;;
3217;SDS011;1621;49.702;8.618;2023-04-16T02:30:08;11.23;;;9.17;;
3217;SDS011;1621;49.702;8.618;2023-04-16T02:32:34;13.87;;;9.90;;
3217;SDS011;1621;49.702;8.618;2023-04-16T02:35:00;10.80;;;8.70;;
3217;SDS011;1621;49.702;8.618;2023-04-16T02:37:27;11.13;;;8.03;;
3217;SDS011;1621;49.702;8.618;2023-04-16T02:39:54;10.60;;;8.30;;
3217;SDS011;1621;49.702;8.618;2023-04-16T02:42:21;12.27;;;9.97;;
3217;SDS011;1621;49.702;8.618;2023-04-16T02:44:48;13.00;;;9.20;;
3217;SDS011;1621;49.702;8.618;2023-04-16T02:47:15;11.70;;;8.50;;
3217;SDS011;1621;49.702;8.618;2023-04-16T02:49:41;12.60;;;9.57;;
3217;SDS011;1621;49.702;8.618;2023-04-16T02:52:08;13.53;;;9.53;;
3217;SDS011;1621;49.702;8.618;2023-04-16T02:54:34;11.47;;;9.80;;
3217;SDS011;1621;49.702;8.618;2023-04-16T02:57:00;14.23;;;10.40;;
3217;SDS011;1621;49.702;8.618;2023-04-16T02:59:27;12.30;;;10.03;;
3217;SDS011;1621;49.702;8.618;2023-04-16T03:01:53;12.13;;;9.30;;
3217;SDS011;1621;49.702;8.618;2023-04-16T03:04:21;12.23;;;9.40;;
3217;SDS011;1621;49.702;8.618;2023-04-16T03:06:47;12.47;;;10.03;;
3217;SDS011;1621;49.702;8.618;2023-04-16T03:09:13;12.00;;;9.63;;
3217;SDS011;1621;49.702;8.618;2023-04-16T03:11:40;15.03;;;10.70;;
3217;SDS011;1621;49.702;8.618;2023-04-16T03:14:06;10.93;;;9.37;;
3217;SDS011;1621;49.702;8.618;2023-04-16T03:16:32;14.73;;;10.50;;
3217;SDS011;1621;49.702;8.618;2023-04-16T03:18:58;11.90;;;9.20;;
3217;SDS011;1621;49.702;8.618;2023-04-16T03:21:26;14.30;;;11.10;;
3217;SDS011;1621;49.702;8.618;2023-04-16T03:23:52;13.10;;;9.90;;
3217;SDS011;1621;49.702;8.618;2023-04-16T03:26:20;12.57;;;9.13;;
3217;SDS011;1621;49.702;8.618;2023-04-16T03:28:46;12.17;;;9.70;;
3217;SDS011;1621;49.702;8.618;2023-04-16T03:31:12;13.37;;;10.13;;
3217;SDS011;1621;49.702;8.618;2023-04-16T03:33:38;14.43;;;10.60;;
3217;SDS011;1621;49.702;8.618;2023-04-16T03:36:05;14.23;;;10.90;;
3217;SDS011;1621;49.702;8.618;2023-04-16T03:38:33;18.20;;;11.30;;
3217;SDS011;1621;49.702;8.618;2023-04-16T03:40:59;14.37;;;10.17;;
3217;SDS011;1621;49.702;8.618;2023-04-16T03:43:25;13.17;;;10.10;;
3217;SDS011;1621;49.702;8.618;2023-04-16T03:45:52;14.30;;;11.63;;
3217;SDS011;1621;49.702;8.618;2023-04-16T03:48:18;14.70;;;10.50;;
3217;SDS011;1621;49.702;8.618;2023-04-16T03:50:44;14.67;;;11.77;;
3217;SDS011;1621;49.702;8.618;2023-04-16T03:53:12;14.57;;;10.77;;
3217;SDS011;1621;49.702;8.618;2023-04-16T03:55:40;13.80;;;10.17;;
3217;SDS011;1621;49.702;8.618;2023-04-16T03:58:06;13.50;;;10.30;;
3217;SDS011;1621;49.702;8.618;2023-04-16T04:00:32;15.47;;;11.60;;
3217;SDS011;1621;49.702;8.618;2023-04-16T04:02:59;15.83;;;12.03;;
3217;SDS011;1621;49.702;8.618;2023-04-16T04:08:33;12.70;;;10.63;;
3217;SDS011;1621;49.702;8.618;2023-04-16T04:11:00;14.77;;;12.20;;
3217;SDS011;1621;49.702;8.618;2023-04-16T04:13:27;14.30;;;10.13;;
3217;SDS011;1621;49.702;8.618;2023-04-16T04:15:53;13.70;;;10.60;;
3217;SDS011;1621;49.702;8.618;2023-04-16T04:18:19;13.83;;;10.70;;
3217;SDS011;1621;49.702;8.618;2023-04-16T04:20:45;14.53;;;10.43;;
3217;SDS011;1621;49.702;8.618;2023-04-16T04:23:12;13.67;;;10.67;;
3217;SDS011;1621;49.702;8.618;2023-04-16T04:25:38;14.30;;;10.30;;
3217;SDS011;1621;49.702;8.618;2023-04-16T04:28:05;15.53;;;11.17;;
3217;SDS011;1621;49.702;8.618;2023-04-16T04:30:32;15.27;;;11.40;;
3217;SDS011;1621;49.702;8.618;2023-04-16T04:32:59;15.30;;;10.00;;
3217;SDS011;1621;49.702;8.618;2023-04-16T04:35:25;13.77;;;11.77;;
3217;SDS011;1621;49.702;8.618;2023-04-16T04:37:52;14.33;;;11.23;;
3217;SDS011;1621;49.702;8.618;2023-04-16T04:40:18;15.23;;;11.50;;
3217;SDS011;1621;49.702;8.618;2023-04-16T04:42:44;14.37;;;11.90;;
3217;SDS011;1621;49.702;8.618;2023-04-16T04:45:12;15.63;;;11.43;;
3217;SDS011;1621;49.702;8.618;2023-04-16T04:47:38;18.37;;;11.40;;
3217;SDS011;1621;49.702;8.618;2023-04-16T04:50:05;16.53;;;10.10;;
3217;SDS011;1621;49.702;8.618;2023-04-16T04:52:31;15.60;;;10.87;;
3217;SDS011;1621;49.702;8.618;2023-04-16T04:54:57;14.63;;;10.77;;
3217;SDS011;1621;49.702;8.618;2023-04-16T04:57:24;13.80;;;10.87;;
3217;SDS011;1621;49.702;8.618;2023-04-16T04:59:50;15.43;;;10.17;;
3217;SDS011;1621;49.702;8.618;2023-04-16T05:02:18;14.00;;;10.77;;
3217;SDS011;1621;49.702;8.618;2023-04-16T05:04:44;13.93;;;11.37;;
3217;SDS011;1621;49.702;8.618;2023-04-16T05:07:10;13.63;;;10.33;;
3217;SDS011;1621;49.702;8.618;2023-04-16T05:09:37;15.23;;;11.50;;
3217;SDS011;1621;49.702;8.618;2023-04-16T05:12:03;14.50;;;11.13;;
3217;SDS011;1621;49.702;8.618;2023-04-16T05:14:29;14.43;;;11.30;;
3217;SDS011;1621;49.702;8.618;2023-04-16T05:16:55;12.93;;;10.63;;
3217;SDS011;1621;49.702;8.618;2023-04-16T05:19:23;14.30;;;11.27;;
3217;SDS011;1621;49.702;8.618;2023-04-16T05:21:49;13.67;;;10.23;;
3217;SDS011;1621;49.702;8.618;2023-04-16T05:24:15;15.27;;;12.10;;
3217;SDS011;1621;49.702;8.618;2023-04-16T05:26:42;14.10;;;10.27;;
3217;SDS011;1621;49.702;8.618;2023-04-16T05:29:08;14.10;;;10.57;;
3217;SDS011;1621;49.702;8.618;2023-04-16T05:31:34;15.23;;;11.03;;
3217;SDS011;1621;49.702;8.618;2023-04-16T05:34:00;13.60;;;10.27;;
3217;SDS011;1621;49.702;8.618;2023-04-16T05:36:28;15.80;;;11.00;;
3217;SDS011;1621;49.702;8.618;2023-04-16T05:38:54;14.60;;;10.50;;
3217;SDS011;1621;49.702;8.618;2023-04-16T05:41:20;15.47;;;11.10;;
3217;SDS011;1621;49.702;8.618;2023-04-16T05:43:47;14.73;;;11.70;;
3217;SDS011;1621;49.702;8.618;2023-04-16T05:46:13;13.37;;;10.57;;
3217;SDS011;1621;49.702;8.618;2023-04-16T05:48:39;15.73;;;11.80;;
3217;SDS011;1621;49.702;8.618;2023-04-16T05:51:06;13.13;;;9.67;;
3217;SDS011;1621;49.702;8.618;2023-04-16T05:53:33;14.30;;;11.00;;
3217;SDS011;1621;49.702;8.618;2023-04-16T05:55:59;12.80;;;10.23;;
3217;SDS011;1621;49.702;8.618;2023-04-16T05:58:26;12.70;;;10.30;;
3217;SDS011;1621;49.702;8.618;2023-04-16T06:00:52;14.90;;;11.10;;
3217;SDS011;1621;49.702;8.618;2023-04-16T06:03:18;13.43;;;10.30;;
3217;SDS011;1621;49.702;8.618;2023-04-16T06:05:44;15.37;;;10.30;;
3217;SDS011;1621;49.702;8.618;2023-04-16T06:08:11;14.93;;;10.73;;
3217;SDS011;1621;49.702;8.618;2023-04-16T06:10:38;13.53;;;11.03;;
3217;SDS011;1621;49.702;8.618;2023-04-16T06:13:05;13.00;;;10.57;;
3217;SDS011;1621;49.702;8.618;2023-04-16T06:15:31;13.70;;;11.10;;
3217;SDS011;1621;49.702;8.618;2023-04-16T06:17:57;15.23;;;11.30;;
3217;SDS011;1621;49.702;8.618;2023-04-16T06:20:23;12.20;;;10.30;;
3217;SDS011;1621;49.702;8.618;2023-04-16T06:22:50;12.07;;;10.33;;
3217;SDS011;1621;49.702;8.618;2023-04-16T06:25:16;14.00;;;10.17;;
3217;SDS011;1621;49.702;8.618;2023-04-16T06:27:44;13.77;;;10.40;;
3217;SDS011;1621;49.702;8.618;2023-04-16T06:30:10;13.47;;;10.90;;
3217;SDS011;1621;49.702;8.618;2023-04-16T06:32:37;13.80;;;10.37;;
3217;SDS011;1621;49.702;8.618;2023-04-16T06:35:03;14.10;;;11.20;;
3217;SDS011;1621;49.702;8.618;2023-04-16T06:37:30;13.40;;;10.67;;
3217;SDS011;1621;49.702;8.618;2023-04-16T06:39:56;13.63;;;10.03;;
3217;SDS011;1621;49.702;8.618;2023-04-16T06:42:22;13.63;;;10.87;;
3217;SDS011;1621;49.702;8.618;2023-04-16T06:44:50;14.50;;;10.53;;
3217;SDS011;1621;49.702;8.618;2023-04-16T06:47:16;14.07;;;10.60;;
3217;SDS011;1621;49.702;8.618;2023-04-16T06:49:42;13.17;;;10.80;;
3217;SDS011;1621;49.702;8.618;2023-04-16T06:52:08;16.97;;;11.90;;
3217;SDS011;1621;49.702;8.618;2023-04-16T06:54:35;14.80;;;11.57;;
3217;SDS011;1621;49.702;8.618;2023-04-16T06:57:01;13.93;;;11.17;;
3217;SDS011;1621;49.702;8.618;2023-04-16T06:59:27;14.83;;;10.97;;
3217;SDS011;1621;49.702;8.618;2023-04-16T07:01:55;15.83;;;11.80;;
3217;SDS011;1621;49.702;8.618;2023-04-16T07:04:21;14.63;;;10.83;;
3217;SDS011;1621;49.702;8.618;2023-04-16T07:06:48;17.03;;;10.93;;
3217;SDS011;1621;49.702;8.618;2023-04-16T07:09:14;14.50;;;12.13;;
3217;SDS011;1621;49.702;8.618;2023-04-16T07:11:41;14.63;;;11.30;;
3217;SDS011;1621;49.702;8.618;2023-04-16T07:14:08;14.13;;;11.00;;
3217;SDS011;1621;49.702;8.618;2023-04-16T07:16:34;14.00;;;10.63;;
3217;SDS011;1621;49.702;8.618;2023-04-16T07:19:02;15.43;;;11.40;;
3217;SDS011;1621;49.702;8.618;2023-04-16T07:21:29;17.33;;;11.97;;
3217;SDS011;1621;49.702;8.618;2023-04-16T07:23:55;16.00;;;11.60;;
3217;SDS011;1621;49.702;8.618;2023-04-16T07:26:22;17.07;;;12.73;;
3217;SDS011;1621;49.702;8.618;2023-04-16T07:28:48;14.40;;;10.57;;
3217;SDS011;1621;49.702;8.618;2023-04-16T07:31:14;17.87;;;12.70;;
3217;SDS011;1621;49.702;8.618;2023-04-16T07:33:41;16.67;;;12.17;;
3217;SDS011;1621;49.702;8.618;2023-04-16T07:36:08;18.07;;;12.07;;
3217;SDS011;1621;49.702;8.618;2023-04-16T07:38:35;20.77;;;13.50;;
3217;SDS011;1621;49.702;8.618;2023-04-16T07:41:01;18.47;;;13.40;;
3217;SDS011;1621;49.702;8.618;2023-04-16T07:43:27;16.80;;;12.00;;
3217;SDS011;1621;49.702;8.618;2023-04-16T07:45:53;19.57;;;13.90;;
3217;SDS011;1621;49.702;8.618;2023-04-16T07:48:20;16.90;;;13.33;;
3217;SDS011;1621;49.702;8.618;2023-04-16T07:50:46;18.20;;;14.33;;
3217;SDS011;1621;49.702;8.618;2023-04-16T07:53:15;18.00;;;13.00;;
3217;SDS011;1621;49.702;8.618;2023-04-16T07:55:41;17.40;;;13.60;;
3217;SDS011;1621;49.702;8.618;2023-04-16T07:58:07;17.33;;;13.30;;
3217;SDS011;1621;49.702;8.618;2023-04-16T08:00:34;19.90;;;13.63;;
3217;SDS011;1621;49.702;8.618;2023-04-16T08:03:00;20.90;;;14.13;;
3217;SDS011;1621;49.702;8.618;2023-04-16T08:05:26;17.97;;;14.07;;
3217;SDS011;1621;49.702;8.618;2023-04-16T08:07:53;18.43;;;13.70;;
3217;SDS011;1621;49.702;8.618;2023-04-16T08:10:20;19.90;;;13.43;;
3217;SDS011;1621;49.702;8.618;2023-04-16T08:12:46;20.53;;;14.40;;
3217;SDS011;1621;49.702;8.618;2023-04-16T08:15:13;18.57;;;13.70;;
3217;SDS011;1621;49.702;8.618;2023-04-16T08:17:39;20.00;;;14.50;;
3217;SDS011;1621;49.702;8.618;2023-04-16T08:20:06;18.37;;;13.60;;
3217;SDS011;1621;49.702;8.618;2023-04-16T08:22:32;17.07;;;12.43;;
3217;SDS011;1621;49.702;8.618;2023-04-16T08:24:58;18.40;;;13.23;;
3217;SDS011;1621;49.702;8.618;2023-04-16T08:27:26;18.63;;;13.40;;
3217;SDS011;1621;49.702;8.618;2023-04-16T08:29:52;18.33;;;13.83;;
3217;SDS011;1621;49.702;8.618;2023-04-16T08:32:18;17.63;;;13.10;;
3217;SDS011;1621;49.702;8.618;2023-04-16T08:34:45;18.93;;;14.00;;
3217;SDS011;1621;49.702;8.618;2023-04-16T08:37:11;18.60;;;13.50;;
3217;SDS011;1621;49.702;8.618;2023-04-16T08:39:37;15.20;;;12.17;;
3217;SDS011;1621;49.702;8.618;2023-04-16T08:42:04;18.47;;;13.70;;
3217;SDS011;1621;49.702;8.618;2023-04-16T08:44:33;20.20;;;13.33;;
3217;SDS011;1621;49.702;8.618;2023-04-16T08:46:59;16.23;;;12.07;;
3217;SDS011;1621;49.702;8.618;2023-04-16T08:49:26;16.63;;;12.50;;
3217;SDS011;1621;49.702;8.618;2023-04-16T08:51:53;17.87;;;13.03;;
3217;SDS011;1621;49.702;8.618;2023-04-16T08:54:22;18.53;;;12.87;;
3217;SDS011;1621;49.702;8.618;2023-04-16T08:56:52;17.33;;;12.90;;
3217;SDS011;1621;49.702;8.618;2023-04-16T08:59:19;17.60;;;13.20;;
3217;SDS011;1621;49.702;8.618;2023-04-16T09:01:48;14.83;;;11.60;;
3217;SDS011;1621;49.702;8.618;2023-04-16T09:04:16;17.80;;;12.90;;
3217;SDS011;1621;49.702;8.618;2023-04-16T09:06:42;18.83;;;11.83;;
3217;SDS011;1621;49.702;8.618;2023-04-16T09:09:09;15.60;;;11.43;;
3217;SDS011;1621;49.702;8.618;2023-04-16T09:11:35;17.17;;;11.97;;
3217;SDS011;1621;49.702;8.618;2023-04-16T09:14:03;15.70;;;11.60;;
3217;SDS011;1621;49.702;8.618;2023-04-16T09:16:30;16.10;;;11.93;;
3217;SDS011;1621;49.702;8.618;2023-04-16T09:18:59;16.43;;;11.93;;
3217;SDS011;1621;49.702;8.618;2023-04-16T09:21:26;16.27;;;10.97;;
3217;SDS011;1621;49.702;8.618;2023-04-16T09:23:52;14.10;;;10.67;;
3217;SDS011;1621;49.702;8.618;2023-04-16T09:26:19;16.50;;;12.00;;
3217;SDS011;1621;49.702;8.618;2023-04-16T09:28:47;13.80;;;9.97;;
3217;SDS011;1621;49.702;8.618;2023-04-16T09:31:15;17.27;;;11.63;;
3217;SDS011;1621;49.702;8.618;2023-04-16T09:33:41;15.37;;;10.63;;
3217;SDS011;1621;49.702;8.618;2023-04-16T09:36:09;15.20;;;11.70;;
3217;SDS011;1621;49.702;8.618;2023-04-16T09:38:47;14.13;;;11.50;;
3217;SDS011;1621;49.702;8.618;2023-04-16T09:41:13;15.63;;;10.83;;
3217;SDS011;1621;49.702;8.618;2023-04-16T09:43:41;16.37;;;11.20;;
3217;SDS011;1621;49.702;8.618;2023-04-16T09:46:07;14.40;;;11.60;;
3217;SDS011;1621;49.702;8.618;2023-04-16T09:48:36;18.00;;;14.17;;
3217;SDS011;1621;49.702;8.618;2023-04-16T09:51:03;20.03;;;13.47;;
3217;SDS011;1621;49.702;8.618;2023-04-16T09:53:32;16.10;;;11.83;;
3217;SDS011;1621;49.702;8.618;2023-04-16T09:55:59;16.50;;;12.23;;
3217;SDS011;1621;49.702;8.618;2023-04-16T09:58:25;14.77;;;10.53;;
3217;SDS011;1621;49.702;8.618;2023-04-16T10:00:54;15.30;;;11.97;;
3217;SDS011;1621;49.702;8.618;2023-04-16T10:03:25;17.70;;;12.40;;
3217;SDS011;1621;49.702;8.618;2023-04-16T10:05:53;19.03;;;12.10;;
3217;SDS011;1621;49.702;8.618;2023-04-16T10:08:20;16.37;;;11.63;;
3217;SDS011;1621;49.702;8.618;2023-04-16T10:10:47;16.60;;;12.37;;
3217;SDS011;1621;49.702;8.618;2023-04-16T10:13:13;15.37;;;11.87;;
3217;SDS011;1621;49.702;8.618;2023-04-16T10:15:41;16.80;;;11.10;;
3217;SDS011;1621;49.702;8.618;2023-04-16T10:18:08;17.53;;;11.97;;
3217;SDS011;1621;49.702;8.618;2023-04-16T10:20:35;15.87;;;11.90;;
3217;SDS011;1621;49.702;8.618;2023-04-16T10:23:01;15.80;;;12.33;;
3217;SDS011;1621;49.702;8.618;2023-04-16T10:25:28;14.80;;;11.07;;
3217;SDS011;1621;49.702;8.618;2023-04-16T10:27:56;16.13;;;12.00;;
3217;SDS011;1621;49.702;8.618;2023-04-16T10:30:23;14.60;;;11.40;;
3217;SDS011;1621;49.702;8.618;2023-04-16T10:32:50;14.97;;;11.50;;
3217;SDS011;1621;49.702;8.618;2023-04-16T10:35:18;15.37;;;11.23;;
3217;SDS011;1621;49.702;8.618;2023-04-16T10:37:44;17.87;;;13.20;;
3217;SDS011;1621;49.702;8.618;2023-04-16T10:42:57;15.43;;;12.43;;
3217;SDS011;1621;49.702;8.618;2023-04-16T10:45:28;15.77;;;12.63;;
3217;SDS011;1621;49.702;8.618;2023-04-16T10:47:55;17.40;;;13.50;;
3217;SDS011;1621;49.702;8.618;2023-04-16T10:50:22;19.03;;;13.97;;
3217;SDS011;1621;49.702;8.618;2023-04-16T10:52:49;20.30;;;14.60;;
3217;SDS011;1621;49.702;8.618;2023-04-16T10:55:37;20.23;;;15.90;;
3217;SDS011;1621;49.702;8.618;2023-04-16T10:58:13;18.90;;;14.53;;
3217;SDS011;1621;49.702;8.618;2023-04-16T11:00:51;19.23;;;14.63;;
3217;SDS011;1621;49.702;8.618;2023-04-16T11:03:17;19.77;;;15.30;;
3217;SDS011;1621;49.702;8.618;2023-04-16T11:05:44;22.00;;;15.53;;
3217;SDS011;1621;49.702;8.618;2023-04-16T11:08:12;20.80;;;16.70;;
3217;SDS011;1621;49.702;8.618;2023-04-16T11:10:38;21.17;;;15.73;;
3217;SDS011;1621;49.702;8.618;2023-04-16T11:13:05;21.47;;;16.37;;
3217;SDS011;1621;49.702;8.618;2023-04-16T11:15:32;20.03;;;16.07;;
3217;SDS011;1621;49.702;8.618;2023-04-16T11:17:59;25.93;;;17.50;;
3217;SDS011;1621;49.702;8.618;2023-04-16T11:20:26;22.10;;;16.40;;
3217;SDS011;1621;49.702;8.618;2023-04-16T11:22:53;22.60;;;17.47;;
3217;SDS011;1621;49.702;8.618;2023-04-16T11:25:20;20.20;;;16.03;;
3217;SDS011;1621;49.702;8.618;2023-04-16T11:27:46;24.00;;;16.77;;
3217;SDS011;1621;49.702;8.618;2023-04-16T11:30:13;24.90;;;17.37;;
3217;SDS011;1621;49.702;8.618;2023-04-16T11:32:40;22.40;;;17.37;;
3217;SDS011;1621;49.702;8.618;2023-04-16T11:35:12;24.17;;;17.73;;
3217;SDS011;1621;49.702;8.618;2023-04-16T11:37:38;22.60;;;16.70;;
3217;SDS011;1621;49.702;8.618;2023-04-16T11:40:05;25.70;;;16.93;;
3217;SDS011;1621;49.702;8.618;2023-04-16T11:42:32;26.00;;;19.00;;
3217;SDS011;1621;49.702;8.618;2023-04-16T11:45:01;21.60;;;17.37;;
3217;SDS011;1621;49.702;8.618;2023-04-16T11:47:28;22.70;;;17.47;;
3217;SDS011;1621;49.702;8.618;2023-04-16T11:49:55;22.33;;;17.77;;
3217;SDS011;1621;49.702;8.618;2023-04-16T11:52:25;24.60;;;18.30;;
3217;SDS011;1621;49.702;8.618;2023-04-16T11:54:52;22.27;;;17.87;;
3217;SDS011;1621;49.702;8.618;2023-04-16T11:57:22;25.80;;;19.60;;
3217;SDS011;1621;49.702;8.618;2023-04-16T11:59:49;25.90;;;19.20;;
3217;SDS011;1621;49.702;8.618;2023-04-16T12:02:15;22.73;;;17.87;;
3217;SDS011;1621;49.702;8.618;2023-04-16T12:04:41;20.80;;;17.47;;
3217;SDS011;1621;49.702;8.618;2023-04-16T12:07:09;23.43;;;18.20;;
3217;SDS011;1621;49.702;8.618;2023-04-16T12:09:36;24.87;;;19.60;;
3217;SDS011;1621;49.702;8.618;2023-04-16T12:12:03;26.30;;;18.57;;
3217;SDS011;1621;49.702;8.618;2023-04-16T12:14:29;28.13;;;17.93;;
3217;SDS011;1621;49.702;8.618;2023-04-16T12:16:56;25.77;;;18.70;;
3217;SDS011;1621;49.702;8.618;2023-04-16T12:19:22;21.80;;;17.73;;
3217;SDS011;1621;49.702;8.618;2023-04-16T12:21:49;27.17;;;19.53;;
3217;SDS011;1621;49.702;8.618;2023-04-16T12:24:17;24.67;;;18.90;;
3217;SDS011;1621;49.702;8.618;2023-04-16T12:26:46;25.23;;;19.40;;
3217;SDS011;1621;49.702;8.618;2023-04-16T12:29:13;24.10;;;17.17;;
3217;SDS011;1621;49.702;8.618;2023-04-16T12:31:40;23.07;;;17.83;;
3217;SDS011;1621;49.702;8.618;2023-04-16T12:34:06;25.40;;;17.67;;
3217;SDS011;1621;49.702;8.618;2023-04-16T12:36:34;25.70;;;19.27;;
3217;SDS011;1621;49.702;8.618;2023-04-16T12:39:00;26.60;;;19.50;;
3217;SDS011;1621;49.702;8.618;2023-04-16T12:41:28;21.87;;;17.27;;
3217;SDS011;1621;49.702;8.618;2023-04-16T12:44:01;24.10;;;18.30;;
3217;SDS011;1621;49.702;8.618;2023-04-16T12:46:27;24.13;;;16.87;;
3217;SDS011;1621;49.702;8.618;2023-04-16T12:48:54;21.17;;;16.87;;
3217;SDS011;1621;49.702;8.618;2023-04-16T12:51:21;23.13;;;16.40;;
3217;SDS011;1621;49.702;8.618;2023-04-16T12:53:47;23.80;;;16.60;;
3217;SDS011;1621;49.702;8.618;2023-04-16T12:56:14;25.10;;;17.10;;
3217;SDS011;1621;49.702;8.618;2023-04-16T12:58:42;20.20;;;16.37;;
3217;SDS011;1621;49.702;8.618;2023-04-16T13:01:08;23.17;;;16.33;;
3217;SDS011;1621;49.702;8.618;2023-04-16T13:03:35;21.00;;;16.00;;
3217;SDS011;1621;49.702;8.618;2023-04-16T13:06:02;22.40;;;16.47;;
3217;SDS011;1621;49.702;8.618;2023-04-16T13:08:29;23.03;;;16.53;;
3217;SDS011;1621;49.702;8.618;2023-04-16T13:10:56;20.57;;;15.77;;
3217;SDS011;1621;49.702;8.618;2023-04-16T13:13:22;20.70;;;16.00;;
3217;SDS011;1621;49.702;8.618;2023-04-16T13:15:50;20.50;;;15.10;;
3217;SDS011;1621;49.702;8.618;2023-04-16T13:18:16;19.57;;;15.40;;
3217;SDS011;1621;49.702;8.618;2023-04-16T13:20:42;19.33;;;15.77;;
3217;SDS011;1621;49.702;8.618;2023-04-16T13:23:08;20.30;;;14.93;;
3217;SDS011;1621;49.702;8.618;2023-04-16T13:25:35;19.60;;;15.27;;
3217;SDS011;1621;49.702;8.618;2023-04-16T13:28:01;20.50;;;16.30;;
3217;SDS011;1621;49.702;8.618;2023-04-16T13:30:27;21.17;;;16.40;;
3217;SDS011;1621;49.702;8.618;2023-04-16T13:32:55;18.70;;;14.70;;
3217;SDS011;1621;49.702;8.618;2023-04-16T13:35:22;20.10;;;16.40;;
3217;SDS011;1621;49.702;8.618;2023-04-16T13:37:48;21.37;;;15.83;;
3217;SDS011;1621;49.702;8.618;2023-04-16T13:40:14;20.67;;;16.30;;
3217;SDS011;1621;49.702;8.618;2023-04-16T13:42:41;22.40;;;18.07;;
3217;SDS011;1621;49.702;8.618;2023-04-16T13:45:07;23.60;;;17.57;;
3217;SDS011;1621;49.702;8.618;2023-04-16T13:47:34;25.17;;;17.43;;
3217;SDS011;1621;49.702;8.618;2023-04-16T13:50:02;23.27;;;17.00;;
3217;SDS011;1621;49.702;8.618;2023-04-16T13:52:28;25.50;;;16.97;;
3217;SDS011;1621;49.702;8.618;2023-04-16T13:54:54;25.17;;;19.07;;
3217;SDS011;1621;49.702;8.618;2023-04-16T13:57:20;25.90;;;18.33;;
3217;SDS011;1621;49.702;8.618;2023-04-16T13:59:47;22.67;;;18.37;;
3217;SDS011;1621;49.702;8.618;2023-04-16T14:02:13;22.83;;;17.70;;
3217;SDS011;1621;49.702;8.618;2023-04-16T14:04:40;23.90;;;17.50;;
3217;SDS011;1621;49.702;8.618;2023-04-16T14:07:07;21.40;;;17.30;;
3217;SDS011;1621;49.702;8.618;2023-04-16T14:09:33;21.83;;;17.00;;
3217;SDS011;1621;49.702;8.618;2023-04-16T14:12:00;23.20;;;17.80;;
3217;SDS011;1621;49.702;8.618;2023-04-16T14:14:26;23.23;;;18.23;;
3217;SDS011;1621;49.702;8.618;2023-04-16T14:16:53;22.67;;;18.20;;
3217;SDS011;1621;49.702;8.618;2023-04-16T14:19:19;26.60;;;19.67;;
3217;SDS011;1621;49.702;8.618;2023-04-16T14:21:45;24.73;;;17.87;;
3217;SDS011;1621;49.702;8.618;2023-04-16T14:24:14;23.27;;;18.33;;
3217;SDS011;1621;49.702;8.618;2023-04-16T14:26:41;22.43;;;18.03;;
3217;SDS011;1621;49.702;8.618;2023-04-16T14:29:07;23.30;;;17.97;;
3217;SDS011;1621;49.702;8.618;2023-04-16T14:31:34;25.57;;;18.50;;
3217;SDS011;1621;49.702;8.618;2023-04-16T14:34:01;29.27;;;19.97;;
3217;SDS011;1621;49.702;8.618;2023-04-16T14:36:27;25.00;;;19.27;;
3217;SDS011;1621;49.702;8.618;2023-04-16T14:38:55;25.37;;;19.23;;
3217;SDS011;1621;49.702;8.618;2023-04-16T14:41:22;26.43;;;19.70;;
3217;SDS011;1621;49.702;8.618;2023-04-16T14:43:49;26.17;;;18.70;;
3217;SDS011;1621;49.702;8.618;2023-04-16T14:46:15;25.43;;;19.60;;
3217;SDS011;1621;49.702;8.618;2023-04-16T14:48:42;26.13;;;20.57;;
3217;SDS011;1621;49.702;8.618;2023-04-16T14:51:08;21.80;;;18.50;;
3217;SDS011;1621;49.702;8.618;2023-04-16T14:53:35;24.13;;;19.40;;